Time;durP1;ratioP1;P1;durP2;ratioP2;P2;SDS_P1;SDS_P2;PMS_P1;PMS_P2;Temp;Humidity;BMP_temperature;BMP_pressure;BME280_temperature;BME280_humidity;BME280_pressure;Samples;Min_cycle;Max_cycle;Signal;HPM_P1;HPM_P2
2022/10/23 00:04:59;;;;;;;1.92;1.50;;;;;;;6.92;73.88;100310.56;10443643;28;20080;-75
2022/10/23 00:10:01;;;;;;;2.22;1.30;;;;;;;7.19;72.73;100306.88;10443075;28;20044;-75
2022/10/23 00:15:04;;;;;;;1.48;1.23;;;;;;;7.03;72.06;100305.16;10443143;28;20049;-75
2022/10/23 00:20:07;;;;;;;2.78;1.98;;;;;;;6.98;72.23;100305.97;10441545;28;20037;-75
2022/10/23 00:25:09;;;;;;;2.05;1.00;;;;;;;6.57;73.73;100302.19;10445107;28;20060;-75
2022/10/23 00:30:13;;;;;;;3.13;1.50;;;;;;;6.67;74.41;100301.44;10450728;28;20049;-75
2022/10/23 00:35:15;;;;;;;1.77;1.38;;;;;;;6.84;73.39;100286.53;10432246;28;20049;-75
2022/10/23 00:40:17;;;;;;;1.85;1.30;;;;;;;6.72;73.83;100294.09;10432515;28;20068;-75
2022/10/23 00:45:21;;;;;;;1.23;1.10;;;;;;;6.86;73.26;100276.19;10431779;28;20033;-75
2022/10/23 00:50:25;;;;;;;4.07;1.55;;;;;;;6.76;73.30;100269.84;10448555;28;20037;-74
2022/10/23 00:55:28;;;;;;;2.63;1.48;;;;;;;6.80;73.48;100268.25;10432211;28;20069;-75
2022/10/23 01:00:42;;;;;;;3.58;1.88;;;;;;;7.00;73.40;100251.97;10449258;28;20041;-75
2022/10/23 01:06:15;;;;;;;2.70;1.30;;;;;;;7.02;72.78;100248.97;10448621;28;20059;-75
2022/10/23 01:11:21;;;;;;;3.22;1.50;;;;;;;7.10;72.21;100242.97;10415405;28;20045;-75
2022/10/23 01:16:40;;;;;;;2.30;1.42;;;;;;;7.30;72.07;100239.53;10424491;28;20057;-75
2022/10/23 01:21:45;;;;;;;4.82;1.55;;;;;;;7.35;72.05;100234.88;10430936;28;20053;-75
2022/10/23 01:27:12;;;;;;;1.75;1.30;;;;;;;7.26;71.39;100226.38;10429443;28;20049;-75
2022/10/23 01:32:41;;;;;;;2.60;1.50;;;;;;;7.40;71.57;100234.06;10445564;28;20467;-75
2022/10/23 01:38:13;;;;;;;2.13;1.45;;;;;;;7.64;70.56;100213.38;10428872;28;20046;-75
2022/10/23 01:43:20;;;;;;;3.00;1.60;;;;;;;7.82;70.71;100218.28;10443464;28;20057;-75
2022/10/23 01:48:26;;;;;;;2.30;1.38;;;;;;;8.01;69.88;100213.09;10446143;28;20056;-75
2022/10/23 01:53:30;;;;;;;2.88;1.55;;;;;;;7.91;69.12;100209.53;10445723;28;20041;-75
2022/10/23 01:58:33;;;;;;;2.63;1.63;;;;;;;8.03;68.73;100212.81;10445442;28;20052;-75
2022/10/23 02:03:36;;;;;;;2.65;1.60;;;;;;;7.83;69.13;100216.38;10445151;28;20070;-75
2022/10/23 02:08:38;;;;;;;2.25;1.48;;;;;;;7.63;69.84;100217.16;10427239;28;20048;-75
2022/10/23 02:13:46;;;;;;;2.90;1.33;;;;;;;7.34;70.21;100224.25;10412189;28;20069;-74
2022/10/23 02:19:04;;;;;;;5.45;1.90;;;;;;;7.43;71.23;100211.69;10404000;28;20060;-75
2022/10/23 02:24:11;;;;;;;2.55;1.38;;;;;;;7.17;71.66;100200.72;10435179;28;20047;-75
2022/10/23 02:29:16;;;;;;;2.42;1.48;;;;;;;7.03;71.86;100209.69;10444173;28;20037;-75
2022/10/23 02:34:21;;;;;;;2.10;1.60;;;;;;;7.04;72.04;100192.22;10444841;28;20048;-74
2022/10/23 02:39:25;;;;;;;2.60;1.38;;;;;;;6.97;72.46;100199.84;10411498;28;20045;-74
2022/10/23 02:44:58;;;;;;;2.92;1.48;;;;;;;7.12;71.97;100192.53;10443538;28;20512;-74
2022/10/23 02:50:26;;;;;;;3.95;1.20;;;;;;;6.98;72.23;100196.03;10443743;28;20574;-74
2022/10/23 02:55:39;;;;;;;1.80;1.45;;;;;;;7.02;72.44;100188.94;10443196;28;20029;-74
2022/10/23 03:00:44;;;;;;;3.28;1.63;;;;;;;6.90;71.87;100189.19;10442981;28;20054;-73
2022/10/23 03:05:47;;;;;;;2.63;1.70;;;;;;;7.09;72.78;100181.31;10426875;28;20052;-74
2022/10/23 03:10:50;;;;;;;2.30;1.52;;;;;;;6.86;72.66;100172.53;10443755;28;20424;-74
2022/10/23 03:15:53;;;;;;;4.85;1.70;;;;;;;6.17;74.45;100174.69;10442722;28;20053;-74
2022/10/23 03:20:55;;;;;;;2.95;1.63;;;;;;;5.97;75.42;100169.94;10442164;28;20048;-74
2022/10/23 03:25:57;;;;;;;2.72;1.70;;;;;;;5.86;76.52;100170.91;10442525;28;20048;-74
2022/10/23 03:31:14;;;;;;;2.38;1.73;;;;;;;5.80;76.06;100163.78;10441876;28;20412;-74
2022/10/23 03:36:16;;;;;;;1.95;1.33;;;;;;;5.94;76.97;100173.19;10434509;28;20037;-74
2022/10/23 03:41:20;;;;;;;2.45;1.73;;;;;;;5.95;76.88;100161.19;10446389;28;20044;-74
2022/10/23 03:46:22;;;;;;;2.65;1.73;;;;;;;5.90;77.11;100172.03;10446683;28;20408;-74
2022/10/23 03:51:29;;;;;;;2.53;2.05;;;;;;;6.08;77.07;100163.47;10394958;28;20065;-74
2022/10/23 03:56:33;;;;;;;3.38;1.90;;;;;;;6.29;76.30;100156.22;10454891;28;20041;-74
2022/10/23 04:01:35;;;;;;;1.65;1.15;;;;;;;6.40;75.91;100149.72;10453542;28;20037;-74
2022/10/23 04:06:37;;;;;;;3.38;1.65;;;;;;;6.35;76.10;100142.34;10454654;28;20714;-74
2022/10/23 04:11:39;;;;;;;4.25;2.10;;;;;;;6.23;75.94;100158.09;10432318;28;20423;-74
2022/10/23 04:16:41;;;;;;;2.03;1.35;;;;;;;6.25;75.60;100155.94;10432471;28;20045;-75
2022/10/23 04:21:44;;;;;;;2.65;1.60;;;;;;;6.23;76.37;100154.53;10439404;28;20050;-74
2022/10/23 04:26:47;;;;;;;5.15;1.90;;;;;;;6.13;76.20;100154.50;10437882;28;20041;-74
2022/10/23 04:31:50;;;;;;;3.80;1.60;;;;;;;6.21;76.54;100143.91;10452957;28;20041;-74
2022/10/23 04:36:52;;;;;;;2.05;1.73;;;;;;;6.02;77.14;100138.09;10422511;28;20033;-74
2022/10/23 04:41:54;;;;;;;5.50;1.98;;;;;;;6.18;77.25;100136.28;10458543;28;20423;-74
2022/10/23 04:47:00;;;;;;;2.63;1.48;;;;;;;6.49;76.31;100128.25;10470372;28;20037;-74
2022/10/23 04:52:05;;;;;;;3.70;1.95;;;;;;;6.42;75.62;100142.13;10454840;28;20496;-75
2022/10/23 04:57:13;;;;;;;2.67;1.73;;;;;;;6.45;76.14;100140.78;10462454;28;20037;-74
2022/10/23 05:02:42;;;;;;;3.38;2.22;;;;;;;6.59;75.56;100136.44;10445421;28;20049;-76
2022/10/23 05:07:45;;;;;;;3.88;2.00;;;;;;;6.74;75.79;100141.94;10444949;28;22343;-75
2022/10/23 05:13:02;;;;;;;4.65;2.33;;;;;;;6.44;76.15;100144.59;10446291;28;20404;-74
2022/10/23 05:18:15;;;;;;;5.15;2.60;;;;;;;6.15;77.20;100136.81;10434421;28;20037;-75
2022/10/23 05:23:20;;;;;;;13.50;3.42;;;;;;;6.67;78.80;100133.22;10427165;28;20529;-76
2022/10/23 05:28:35;;;;;;;4.68;2.38;;;;;;;6.69;77.61;100128.31;10443564;28;20050;-75
2022/10/23 05:33:39;;;;;;;6.95;2.88;;;;;;;6.71;78.65;100128.03;10445606;28;20037;-76
2022/10/23 05:38:44;;;;;;;5.93;2.75;;;;;;;6.54;78.99;100114.63;10447384;28;20060;-76
2022/10/23 05:43:53;;;;;;;4.45;2.60;;;;;;;6.69;79.36;100124.75;10427630;28;20056;-76
2022/10/23 05:49:13;;;;;;;6.13;2.33;;;;;;;6.68;77.60;100117.69;10437208;28;20060;-76
2022/10/23 05:54:31;;;;;;;8.07;2.13;;;;;;;6.69;78.10;100122.03;10447298;28;20041;-76
2022/10/23 05:59:39;;;;;;;;;;;;;;;6.61;77.95;100117.94;10446104;28;20030;-76
2022/10/23 06:04:56;;;;;;;6.90;2.58;;;;;;;6.47;78.14;100112.16;10445420;28;19931;-76
2022/10/23 06:10:02;;;;;;;6.78;2.63;;;;;;;6.48;79.07;100113.78;10446859;28;20045;-76
2022/10/23 06:15:06;;;;;;;6.15;2.53;;;;;;;6.76;80.08;100109.78;10428547;28;20057;-76
2022/10/23 06:20:38;;;;;;;4.07;1.98;;;;;;;6.74;78.16;100101.06;10444738;28;20049;-76
2022/10/23 06:25:50;;;;;;;5.13;2.33;;;;;;;6.67;78.27;100105.13;10426717;28;20071;-76
2022/10/23 06:30:53;;;;;;;3.22;2.17;;;;;;;6.61;78.49;100101.59;10444877;28;20082;-76
2022/10/23 06:35:56;;;;;;;3.17;1.77;;;;;;;6.44;77.63;100101.78;10428219;28;20041;-76
2022/10/23 06:40:58;;;;;;;2.20;1.77;;;;;;;6.42;77.98;100097.66;10437599;28;20049;-76
2022/10/23 06:46:08;;;;;;;4.05;1.60;;;;;;;6.52;78.61;100090.38;10415132;28;20503;-76
2022/10/23 06:51:40;;;;;;;4.70;2.10;;;;;;;6.59;77.83;100084.66;10442061;28;20530;-74
2022/10/23 06:56:46;;;;;;;4.05;2.17;;;;;;;6.44;78.89;100077.28;10427978;28;20049;-75
2022/10/23 07:01:49;;;;;;;4.68;2.33;;;;;;;6.63;78.72;100074.88;10427467;28;20037;-76
2022/10/23 07:06:58;;;;;;;2.75;2.15;;;;;;;6.42;78.47;100073.16;10443011;28;20412;-74
2022/10/23 07:12:06;;;;;;;4.13;2.28;;;;;;;6.37;78.57;100071.22;10426839;28;20052;-75
2022/10/23 07:17:17;;;;;;;6.63;2.30;;;;;;;6.57;80.02;100065.84;10426587;28;20053;-75
2022/10/23 07:22:19;;;;;;;4.72;2.25;;;;;;;6.73;79.37;100049.50;10445200;28;20041;-75
2022/10/23 07:27:57;;;;;;;5.88;2.42;;;;;;;6.69;79.00;100054.69;10425683;28;20044;-75
2022/10/23 07:33:02;;;;;;;3.25;2.58;;;;;;;6.87;79.91;100051.44;10427632;28;20034;-75
2022/10/23 07:38:20;;;;;;;3.65;2.50;;;;;;;6.67;79.03;100048.69;10451926;28;20435;-75
2022/10/23 07:43:28;;;;;;;4.60;2.53;;;;;;;6.89;79.22;100049.28;10451834;28;20045;-75
2022/10/23 07:48:30;;;;;;;4.93;2.70;;;;;;;6.88;78.59;100050.34;10450502;28;20041;-75
2022/10/23 07:53:37;;;;;;;6.18;3.17;;;;;;;6.63;78.19;100044.88;10448608;28;20044;-75
2022/10/23 07:58:45;;;;;;;3.42;2.45;;;;;;;6.64;79.63;100052.78;10433645;28;20050;-75
2022/10/23 08:03:51;;;;;;;6.32;3.42;;;;;;;6.52;79.02;100051.38;10449607;28;20083;-75
2022/10/23 08:08:54;;;;;;;6.55;3.08;;;;;;;6.59;79.72;100050.03;10449879;28;20052;-76
2022/10/23 08:13:57;;;;;;;6.60;3.17;;;;;;;6.67;80.07;100066.97;10428367;28;20405;-76
2022/10/23 08:19:04;;;;;;;5.50;3.13;;;;;;;6.79;78.84;100062.09;10422235;28;20041;-75
2022/10/23 08:24:12;;;;;;;4.85;2.90;;;;;;;7.05;79.65;100054.75;10429883;28;20048;-76
2022/10/23 08:29:14;;;;;;;4.63;3.00;;;;;;;7.08;78.14;100060.47;10448363;28;20045;-74
2022/10/23 08:34:17;;;;;;;6.30;3.28;;;;;;;6.94;77.59;100054.75;10449310;28;20049;-76
2022/10/23 08:39:22;;;;;;;3.88;2.80;;;;;;;7.00;79.01;100055.56;10432453;28;20037;-76
2022/10/23 08:44:47;;;;;;;4.22;3.00;;;;;;;7.08;78.90;100052.28;10447383;28;20057;-76
2022/10/23 08:49:54;;;;;;;4.63;3.20;;;;;;;6.73;77.33;100052.25;10416081;28;20419;-76
2022/10/23 08:55:11;;;;;;;8.07;3.38;;;;;;;6.41;77.89;100055.97;10408169;28;20049;-77
2022/10/23 09:00:15;;;;;;;8.88;3.58;;;;;;;6.16;79.55;100064.06;10407709;28;20053;-75
2022/10/23 09:05:26;;;;;;;5.57;3.33;;;;;;;6.05;79.81;100055.03;10414028;28;20522;-75
2022/10/23 09:10:42;;;;;;;5.28;3.20;;;;;;;6.11;80.35;100053.16;10449346;28;20439;-76
2022/10/23 09:15:48;;;;;;;5.93;3.33;;;;;;;6.00;80.76;100055.00;10449298;28;20057;-76
2022/10/23 09:20:52;;;;;;;5.70;3.60;;;;;;;6.07;81.69;100058.31;10447996;28;20044;-77
2022/10/23 09:25:55;;;;;;;4.93;2.63;;;;;;;6.69;82.59;100049.25;10444885;28;20507;-76
2022/10/23 09:31:09;;;;;;;5.68;3.80;;;;;;;6.70;82.42;100053.59;10445658;28;20061;-75
2022/10/23 09:36:18;;;;;;;6.32;3.45;;;;;;;6.88;82.22;100050.34;10446671;28;20037;-75
2022/10/23 09:41:23;;;;;;;5.80;3.78;;;;;;;6.93;82.59;100044.91;10444675;28;20037;-76
2022/10/23 09:46:45;;;;;;;8.20;4.75;;;;;;;7.04;81.39;100051.19;10442663;28;20042;-76
2022/10/23 09:52:21;;;;;;;5.85;3.67;;;;;;;7.20;82.29;100043.84;10440807;28;20065;-75
2022/10/23 09:57:23;;;;;;;7.97;4.50;;;;;;;7.21;81.80;100043.56;10441758;28;20048;-75
2022/10/23 10:02:31;;;;;;;9.73;5.43;;;;;;;7.00;82.89;100043.84;10440441;28;20042;-76
2022/10/23 10:08:13;;;;;;;10.80;5.75;;;;;;;6.91;83.97;100043.53;10435819;28;20064;-78
2022/10/23 10:13:40;;;;;;;10.45;5.97;;;;;;;7.11;83.44;100042.72;10436850;28;20040;-78
2022/10/23 10:19:03;;;;;;;8.32;4.45;;;;;;;7.37;83.90;100044.38;10438249;28;20053;-78
2022/10/23 10:24:19;;;;;;;8.98;5.35;;;;;;;7.35;83.93;100029.38;10437959;28;20041;-75
2022/10/23 10:29:40;;;;;;;8.88;5.20;;;;;;;7.27;83.93;100033.44;10434525;28;20423;-74
2022/10/23 10:34:50;;;;;;;9.63;5.13;;;;;;;7.28;84.36;100032.34;10435477;28;20037;-78
2022/10/23 10:40:02;;;;;;;9.15;5.47;;;;;;;7.39;84.63;100035.91;10437971;28;20060;-78
2022/10/23 10:45:23;;;;;;;10.70;5.70;;;;;;;7.41;84.58;100034.53;10446140;28;20056;-79
2022/10/23 10:50:47;;;;;;;10.52;6.07;;;;;;;7.29;85.02;100035.91;10431888;28;20060;-77
2022/10/23 10:55:58;;;;;;;11.93;6.15;;;;;;;7.29;86.17;100016.78;10437274;28;20121;-79
2022/10/23 11:01:02;;;;;;;10.98;5.80;;;;;;;7.43;84.88;100023.34;10418156;28;20042;-77
2022/10/23 11:06:11;;;;;;;9.07;5.60;;;;;;;7.18;85.51;100027.75;10426540;28;20053;-75
2022/10/23 11:11:23;;;;;;;9.65;6.00;;;;;;;7.21;85.68;100019.00;10435530;28;20528;-77
2022/10/23 11:16:31;;;;;;;9.20;5.47;;;;;;;7.28;86.63;100023.34;10404959;28;20523;-77
2022/10/23 11:21:41;;;;;;;8.98;5.47;;;;;;;7.53;85.83;100015.13;10434092;28;20393;-77
2022/10/23 11:26:56;;;;;;;12.07;6.03;;;;;;;7.60;86.12;100023.84;10404348;28;20053;-78
2022/10/23 11:32:13;;;;;;;9.00;5.85;;;;;;;7.35;85.57;100015.72;10438790;28;20426;-77
2022/10/23 11:37:17;;;;;;;11.13;6.17;;;;;;;7.43;86.72;100012.41;10434357;28;20049;-75
2022/10/23 11:42:38;;;;;;;10.80;5.75;;;;;;;7.31;86.93;100012.72;10425536;28;20041;-76
2022/10/23 11:47:42;;;;;;;10.82;6.22;;;;;;;7.21;87.59;100008.09;10437857;28;20179;-78
2022/10/23 11:52:58;;;;;;;13.05;6.70;;;;;;;7.32;87.97;100008.91;10435816;28;20511;-76
2022/10/23 11:58:03;;;;;;;11.70;6.50;;;;;;;7.41;88.01;99999.03;10442321;28;20041;-77
2022/10/23 12:03:16;;;;;;;8.48;5.63;;;;;;;7.31;87.92;99996.34;10416050;28;20053;-77
2022/10/23 12:08:21;;;;;;;11.25;6.65;;;;;;;7.41;88.10;100001.78;10431065;28;20049;-76
2022/10/23 12:13:50;;;;;;;8.95;6.32;;;;;;;7.14;88.41;99995.81;10404152;28;20583;-73
2022/10/23 12:18:53;;;;;;;10.65;6.45;;;;;;;7.20;89.56;100000.16;10431595;28;20045;-77
2022/10/23 12:24:16;;;;;;;8.33;6.23;;;;;;;7.31;90.34;99990.88;10438521;28;20136;-75
2022/10/23 12:29:41;;;;;;;9.30;6.07;;;;;;;7.07;89.61;99998.00;10452292;28;20048;-74
2022/10/23 12:35:08;;;;;;;10.93;5.88;;;;;;;7.26;91.14;99994.44;10444328;28;20037;-76
2022/10/23 12:40:11;;;;;;;8.43;5.27;;;;;;;7.34;91.78;99987.59;10418543;28;20045;-76
2022/10/23 12:45:17;;;;;;;8.63;5.70;;;;;;;7.37;91.31;99989.78;10440911;28;20046;-78
2022/10/23 12:50:23;;;;;;;9.90;5.97;;;;;;;7.52;91.10;99991.66;10449959;28;20045;-80
2022/10/23 12:55:28;;;;;;;7.93;5.05;;;;;;;7.46;92.06;99993.59;10451376;28;20057;-80
2022/10/23 13:00:30;;;;;;;9.45;6.00;;;;;;;7.97;91.79;99987.94;10428903;28;20037;-77
2022/10/23 13:05:32;;;;;;;11.00;5.53;;;;;;;8.03;91.12;99992.31;10426323;28;20045;-77
2022/10/23 13:10:35;;;;;;;8.98;5.60;;;;;;;8.27;90.49;99997.91;10439436;28;20041;-77
2022/10/23 13:15:42;;;;;;;8.40;5.55;;;;;;;8.42;89.66;99997.06;10436603;28;20061;-76
2022/10/23 13:20:50;;;;;;;9.52;5.80;;;;;;;8.65;88.82;99999.09;10407223;28;20675;-78
2022/10/23 13:25:58;;;;;;;10.82;5.88;;;;;;;8.30;87.57;100002.00;10424808;28;20045;-77
2022/10/23 13:31:01;;;;;;;9.65;6.18;;;;;;;7.96;88.06;100005.44;10445488;28;20510;-77
2022/10/23 13:36:12;;;;;;;12.35;5.85;;;;;;;7.85;88.28;100003.84;10446356;28;20048;-78
2022/10/23 13:41:18;;;;;;;11.60;5.57;;;;;;;8.54;90.63;99992.06;10447651;28;20045;-80
2022/10/23 13:46:23;;;;;;;8.07;5.72;;;;;;;9.22;88.02;100003.03;10445383;28;20041;-77
2022/10/23 13:51:27;;;;;;;9.57;6.03;;;;;;;9.71;84.26;99992.94;10446275;28;20538;-77
2022/10/23 13:56:30;;;;;;;12.13;6.78;;;;;;;9.53;82.77;99999.97;10425500;28;20038;-77
2022/10/23 14:01:34;;;;;;;10.57;6.32;;;;;;;9.36;81.83;100000.41;10442245;28;20044;-78
2022/10/23 14:06:37;;;;;;;10.48;5.88;;;;;;;9.09;83.25;100002.88;10442641;28;20415;-80
2022/10/23 14:11:39;;;;;;;7.22;5.32;;;;;;;8.83;83.92;100014.00;10445267;28;20045;-80
2022/10/23 14:16:42;;;;;;;10.50;5.20;;;;;;;8.85;84.28;100019.19;10439249;28;20072;-78
2022/10/23 14:21:44;;;;;;;8.77;4.63;;;;;;;8.45;85.09;100023.81;10451301;28;20044;-76
2022/10/23 14:26:46;;;;;;;9.18;5.60;;;;;;;8.28;85.51;100026.06;10450664;28;20057;-76
2022/10/23 14:31:48;;;;;;;9.35;5.40;;;;;;;8.19;86.96;100028.59;10432984;28;20046;-78
2022/10/23 14:36:50;;;;;;;10.70;6.03;;;;;;;8.18;87.74;100017.94;10424157;28;20056;-76
2022/10/23 14:41:53;;;;;;;11.07;6.57;;;;;;;8.01;87.52;100023.75;10447320;28;20041;-78
2022/10/23 14:46:55;;;;;;;10.82;6.85;;;;;;;7.83;88.75;100033.38;10442572;28;20459;-76
2022/10/23 14:51:57;;;;;;;11.60;5.85;;;;;;;7.72;89.33;100029.84;10414570;28;20037;-76
2022/10/23 14:57:00;;;;;;;11.63;6.85;;;;;;;7.63;88.94;100026.03;10433673;28;20045;-77
2022/10/23 15:02:02;;;;;;;11.30;7.13;;;;;;;7.51;89.57;100023.59;10442017;28;20439;-76
2022/10/23 15:07:04;;;;;;;13.55;7.50;;;;;;;7.57;89.89;100021.66;10443105;28;20053;-75
2022/10/23 15:12:07;;;;;;;10.75;6.82;;;;;;;7.57;90.07;100022.50;10442921;28;20037;-76
2022/10/23 15:17:09;;;;;;;9.63;5.07;;;;;;;7.41;88.74;100040.00;10444321;28;20065;-75
2022/10/23 15:22:11;;;;;;;7.30;4.88;;;;;;;7.15;89.58;100046.56;10443452;28;20045;-77
2022/10/23 15:27:14;;;;;;;6.47;3.92;;;;;;;7.04;88.73;100051.19;10442910;28;20044;-77
2022/10/23 15:32:16;;;;;;;6.93;4.47;;;;;;;6.91;89.66;100052.53;10444947;28;20041;-77
2022/10/23 15:37:18;;;;;;;8.35;4.68;;;;;;;6.78;89.19;100058.53;10438134;28;20045;-87
2022/10/23 15:42:20;;;;;;;9.73;5.15;;;;;;;6.72;89.89;100069.69;10418936;28;20530;-83
2022/10/23 15:47:22;;;;;;;9.38;4.57;;;;;;;6.70;90.93;100072.69;10442944;28;20041;-87
2022/10/23 15:52:25;;;;;;;8.15;4.70;;;;;;;6.83;91.01;100071.38;10440041;28;20037;-88
2022/10/23 15:57:27;;;;;;;6.95;4.20;;;;;;;7.02;92.25;100074.38;10451644;28;20074;-93
2022/10/23 16:02:29;;;;;;;6.15;4.13;;;;;;;6.79;91.41;100073.00;10417237;28;20044;-83
2022/10/23 16:07:31;;;;;;;5.78;3.65;;;;;;;6.64;90.87;100077.31;10449360;28;20049;-88
2022/10/23 16:12:33;;;;;;;6.72;4.28;;;;;;;6.62;91.21;100076.78;10426454;28;20063;-83
2022/10/23 16:17:36;;;;;;;5.80;4.10;;;;;;;6.51;91.04;100094.19;10448087;28;20447;-85
2022/10/23 16:22:38;;;;;;;7.13;3.67;;;;;;;6.47;91.39;100098.53;10448362;28;20037;-85
2022/10/23 16:27:40;;;;;;;5.90;3.55;;;;;;;6.44;90.88;100096.34;10444548;28;20404;-83
2022/10/23 16:32:42;;;;;;;6.90;3.55;;;;;;;6.39;91.42;100101.75;10444885;28;20040;-83
2022/10/23 16:37:45;;;;;;;4.82;3.45;;;;;;;6.34;92.06;100107.19;10447901;28;20041;-82
2022/10/23 16:42:50;;;;;;;5.68;3.20;;;;;;;6.29;91.14;100116.19;10417122;28;20037;-84
2022/10/23 16:48:02;;;;;;;4.03;2.45;;;;;;;6.27;90.98;100121.06;10437790;28;20526;-84
2022/10/23 16:53:04;;;;;;;4.38;3.15;;;;;;;6.22;90.82;100134.66;10447601;28;20089;-84
2022/10/23 16:58:06;;;;;;;7.13;3.22;;;;;;;6.21;90.92;100133.00;10450364;28;20052;-82
2022/10/23 17:03:09;;;;;;;5.20;2.72;;;;;;;6.18;89.91;100139.00;10447863;28;20036;-82
2022/10/23 17:08:11;;;;;;;5.00;2.88;;;;;;;6.13;89.39;100138.97;10446188;28;20048;-85
2022/10/23 17:13:14;;;;;;;5.05;3.05;;;;;;;6.14;89.09;100147.97;10445892;28;20046;-82
2022/10/23 17:18:16;;;;;;;4.40;2.70;;;;;;;6.15;88.98;100155.88;10438617;28;20420;-83
2022/10/23 17:23:18;;;;;;;5.38;2.50;;;;;;;6.14;88.88;100165.13;10444682;28;20041;-84
2022/10/23 17:28:21;;;;;;;3.88;2.58;;;;;;;6.14;88.61;100161.59;10446275;28;20053;-82
2022/10/23 17:33:23;;;;;;;3.97;3.00;;;;;;;6.09;89.29;100169.75;10428385;28;20045;-82
2022/10/23 17:38:26;;;;;;;4.78;2.95;;;;;;;5.99;89.10;100168.56;10443780;28;20052;-82
2022/10/23 17:43:28;;;;;;;4.80;2.80;;;;;;;5.98;89.60;100174.28;10436032;28;20056;-81
2022/10/23 17:48:30;;;;;;;6.47;2.92;;;;;;;5.91;88.31;100187.31;10438338;28;20061;-83
2022/10/23 17:53:34;;;;;;;4.57;2.78;;;;;;;5.84;88.89;100181.22;10445022;28;20049;-81
2022/10/23 17:58:36;;;;;;;5.20;2.78;;;;;;;5.83;87.94;100193.19;10443796;28;20492;-82
2022/10/23 18:03:39;;;;;;;5.82;3.40;;;;;;;5.75;88.25;100200.78;10444073;28;20044;-81
2022/10/23 18:08:43;;;;;;;4.72;3.08;;;;;;;5.68;87.46;100215.69;10414167;28;20045;-81
2022/10/23 18:13:45;;;;;;;7.13;2.67;;;;;;;5.68;88.13;100216.50;10457625;28;20037;-81
2022/10/23 18:18:48;;;;;;;7.13;2.90;;;;;;;5.61;88.31;100215.91;10429871;28;20064;-83
2022/10/23 18:23:50;;;;;;;4.10;2.55;;;;;;;5.64;88.00;100229.00;10420965;28;20046;-86
2022/10/23 18:28:55;;;;;;;3.95;2.90;;;;;;;5.65;88.35;100227.91;10414850;28;20041;-78
2022/10/23 18:34:03;;;;;;;3.88;2.22;;;;;;;5.58;87.86;100231.94;10450352;28;20049;-84
2022/10/23 18:39:08;;;;;;;6.82;3.65;;;;;;;5.45;87.57;100230.44;10437145;28;20046;-84
2022/10/23 18:44:16;;;;;;;6.85;2.90;;;;;;;5.44;87.60;100240.50;10435440;28;20048;-82
2022/10/23 18:49:24;;;;;;;8.80;2.85;;;;;;;5.37;86.86;100239.88;10441385;28;20045;-83
2022/10/23 18:54:26;;;;;;;2.85;2.00;;;;;;;5.24;86.47;100253.91;10444733;28;20503;-84
2022/10/23 18:59:29;;;;;;;4.07;2.33;;;;;;;5.13;85.93;100249.41;10442996;28;20052;-85
2022/10/23 19:04:33;;;;;;;3.00;1.85;;;;;;;5.03;86.09;100250.13;10442636;28;20415;-85
2022/10/23 19:09:36;;;;;;;3.30;1.92;;;;;;;4.98;86.64;100257.38;10446783;28;20038;-85
2022/10/23 19:14:39;;;;;;;3.47;1.95;;;;;;;4.89;86.17;100258.94;10447157;28;20053;-78
2022/10/23 19:19:51;;;;;;;4.50;2.17;;;;;;;4.82;86.53;100253.66;10420040;28;20513;-79
2022/10/23 19:25:15;;;;;;;3.75;1.80;;;;;;;4.79;85.93;100265.88;10436709;28;20450;-79
2022/10/23 19:30:19;;;;;;;4.25;2.60;;;;;;;4.72;86.20;100265.25;10446741;28;20041;-81
2022/10/23 19:35:26;;;;;;;3.65;2.10;;;;;;;4.62;86.55;100264.28;10449458;28;20046;-80
2022/10/23 19:40:29;;;;;;;2.90;1.45;;;;;;;4.53;86.66;100277.47;10446089;28;20046;-80
2022/10/23 19:45:31;;;;;;;2.88;1.40;;;;;;;4.46;86.70;100285.78;10444075;28;20045;-81
2022/10/23 19:50:33;;;;;;;3.38;2.03;;;;;;;4.47;86.89;100292.03;10455032;28;20063;-78
2022/10/23 19:55:35;;;;;;;2.47;1.40;;;;;;;4.40;86.81;100289.50;10456322;28;20100;-77
2022/10/23 20:00:38;;;;;;;3.10;1.27;;;;;;;4.39;86.47;100281.63;10439336;28;20037;-79
2022/10/23 20:05:44;;;;;;;2.15;1.40;;;;;;;4.22;86.70;100289.78;10458620;28;20063;-79
2022/10/23 20:10:46;;;;;;;2.53;1.30;;;;;;;4.22;86.78;100296.03;10464128;28;20042;-79
2022/10/23 20:15:49;;;;;;;2.35;1.40;;;;;;;4.19;87.40;100298.44;10457191;28;20091;-80
2022/10/23 20:20:52;;;;;;;2.42;1.45;;;;;;;4.09;86.89;100299.06;10458396;28;20041;-79
2022/10/23 20:26:05;;;;;;;1.75;1.50;;;;;;;4.18;87.24;100315.78;10458195;28;20419;-79
2022/10/23 20:31:08;;;;;;;2.80;1.50;;;;;;;4.13;87.99;100310.25;10448646;28;20397;-86
2022/10/23 20:36:46;;;;;;;4.93;1.75;;;;;;;4.01;87.66;100313.06;10460338;28;20037;-84
2022/10/23 20:41:48;;;;;;;3.08;2.08;;;;;;;3.90;87.62;100312.06;10424554;28;20056;-79
2022/10/23 20:46:51;;;;;;;3.22;1.70;;;;;;;3.83;87.43;100321.44;10446132;28;20052;-80
2022/10/23 20:51:54;;;;;;;2.50;1.45;;;;;;;3.69;88.19;100320.09;10459979;28;20037;-82
2022/10/23 20:56:57;;;;;;;2.20;1.70;;;;;;;3.55;88.43;100330.41;10448682;28;20038;-81
2022/10/23 21:01:59;;;;;;;1.35;1.20;;;;;;;3.51;88.85;100329.25;10481972;28;20040;-82
2022/10/23 21:07:01;;;;;;;2.47;1.20;;;;;;;3.39;89.01;100340.16;10459956;28;20400;-78
2022/10/23 21:12:05;;;;;;;1.92;1.17;;;;;;;3.22;88.91;100344.69;10490612;28;20044;-78
2022/10/23 21:17:09;;;;;;;2.33;1.25;;;;;;;3.16;89.22;100342.94;10482381;28;20060;-82
2022/10/23 21:22:11;;;;;;;2.63;1.10;;;;;;;3.06;89.41;100357.09;10457787;28;20049;-84
2022/10/23 21:27:14;;;;;;;2.60;1.42;;;;;;;2.92;89.13;100363.81;10447473;28;20515;-81
2022/10/23 21:32:17;;;;;;;2.35;1.20;;;;;;;2.82;89.43;100374.44;10457237;28;20053;-79
2022/10/23 21:37:19;;;;;;;2.10;1.33;;;;;;;2.73;89.83;100373.97;10441915;28;20048;-80
2022/10/23 21:42:22;;;;;;;2.90;1.38;;;;;;;2.65;89.37;100377.03;10446301;28;20519;-79
2022/10/23 21:47:24;;;;;;;1.50;1.40;;;;;;;2.64;90.40;100389.78;10449312;28;20056;-79
2022/10/23 21:52:27;;;;;;;3.28;1.67;;;;;;;2.59;90.00;100386.09;10446988;28;20041;-83
2022/10/23 21:57:33;;;;;;;3.42;1.38;;;;;;;2.59;90.40;100389.63;10455629;28;20040;-93
2022/10/23 22:02:35;;;;;;;2.78;1.50;;;;;;;2.62;89.87;100397.31;10459226;28;20554;-93
2022/10/23 22:07:37;;;;;;;4.22;1.58;;;;;;;2.60;90.24;100404.84;10456847;28;20057;-95
2022/10/23 22:12:39;;;;;;;2.38;1.17;;;;;;;2.60;89.76;100417.53;10452175;28;20045;-88
2022/10/23 22:17:41;;;;;;;1.67;1.00;;;;;;;2.71;89.45;100425.69;10464372;28;20057;-85
2022/10/23 22:22:44;;;;;;;2.92;0.93;;;;;;;2.66;89.72;100422.03;10489518;28;20041;-89
2022/10/23 22:27:46;;;;;;;1.33;0.88;;;;;;;2.59;89.04;100424.84;10465156;28;20040;-86
2022/10/23 22:32:48;;;;;;;1.65;1.05;;;;;;;2.53;88.77;100427.66;10449440;28;20538;-76
2022/10/23 22:37:50;;;;;;;2.85;1.05;;;;;;;2.51;88.57;100446.03;10445278;28;20038;-78
2022/10/23 22:42:52;;;;;;;1.73;1.08;;;;;;;2.36;88.84;100451.88;10443213;28;20041;-79
2022/10/23 22:47:55;;;;;;;1.33;0.70;;;;;;;2.27;89.28;100461.41;10444219;28;20064;-87
2022/10/23 22:52:57;;;;;;;0.95;0.80;;;;;;;2.16;88.84;100467.59;10454777;28;20056;-85
2022/10/23 22:57:59;;;;;;;2.72;0.68;;;;;;;2.06;88.83;100465.44;10438494;28;20049;-78
2022/10/23 23:03:01;;;;;;;1.25;0.63;;;;;;;2.02;89.50;100467.78;10442988;28;20053;-76
2022/10/23 23:08:03;;;;;;;2.70;1.23;;;;;;;2.09;89.70;100473.13;10441947;28;20056;-76
2022/10/23 23:13:06;;;;;;;1.88;0.82;;;;;;;2.15;89.09;100474.91;10474320;28;20511;-75
2022/10/23 23:18:08;;;;;;;1.77;1.08;;;;;;;2.11;89.55;100479.94;10456705;28;20060;-79
2022/10/23 23:23:12;;;;;;;2.15;0.90;;;;;;;2.04;89.15;100476.50;10467068;28;20061;-77
2022/10/23 23:28:17;;;;;;;0.93;0.70;;;;;;;1.91;89.24;100482.09;10431984;28;20057;-82
2022/10/23 23:33:22;;;;;;;1.08;0.60;;;;;;;1.95;89.54;100483.28;10442907;28;20530;-82
2022/10/23 23:38:24;;;;;;;0.70;0.70;;;;;;;1.99;89.18;100489.06;10441585;28;20045;-82
2022/10/23 23:43:27;;;;;;;0.80;0.63;;;;;;;1.95;89.17;100499.53;10442661;28;20060;-82
2022/10/23 23:48:34;;;;;;;1.95;0.75;;;;;;;1.95;89.39;100509.53;10441967;28;20549;-82